CheckWX is a tool to help pilots better visualize weather data.  It is not intended as a substitute for an official pre-flight weather briefing.

06:32:59 UTC

A08 METAR
Vaiden Field Airport
Marion, Alabama, USA
Current

18 mins ago

KA08 230615Z AUTO 00000KT 10SM CLR 13/10 A3012 RMK AO2 T01260097
Observed
Apr-23 @ 06:15 UTC
Visibility
10 SM
Flight Rules
VFR
Cloud Levels
  • Clear skies
Temperature
13°C / 55°F
Dewpoint
10°C / 50°F
Humidity
82%
Altimeter
30.12" Hg
Pressure
1020.02 hPa
Previous

38 mins ago

KA08 230555Z AUTO 00000KT 10SM CLR 13/10 A3013 RMK AO2 T01300097 10249 20130 403000072
Observed
Apr-23 @ 05:55 UTC
Visibility
10 SM
Flight Rules
VFR
Cloud Levels
  • Clear skies
Temperature
13°C / 55°F
Dewpoint
10°C / 50°F
Humidity
82%
Altimeter
30.13" Hg
Pressure
1020.32 hPa
Previous

58 mins ago

KA08 230535Z AUTO 00000KT 10SM CLR 13/11 A3013 RMK AO2 T01330105
Observed
Apr-23 @ 05:35 UTC
Visibility
10 SM
Flight Rules
VFR
Cloud Levels
  • Clear skies
Temperature
13°C / 55°F
Dewpoint
11°C / 52°F
Humidity
88%
Altimeter
30.13" Hg
Pressure
1020.32 hPa